VDE weather

Hierro Airport
El Hierro Island, Canary Islands, Spain

Public forecast

Using degrees Celsius for public forecast. Weather courtesy of forecast.io.

Current aviation weather report (METAR) for Hierro Airport

Retrieved 2019/10/23 09:30 UTC (16 minutes ago):

GCHI 230930Z 36009KT 9999 FEW030 BKN059 22/15 Q1019

Aviation forecast (TAF) for Hierro Airport

Retrieved 2019/10/23 09:00 UTC (46 minutes ago):

TAF GCHI 230800Z 2309/2409 06008KT 9999 SCT040 TX25/2314Z TN20/2405Z PROB30 TEMPO 2403/2408 12010KT